Time;durP1;ratioP1;P1;durP2;ratioP2;P2;SDS_P1;SDS_P2;PMS_P1;PMS_P2;Temp;Humidity;BMP_temperature;BMP_pressure;BME280_temperature;BME280_humidity;BME280_pressure;Samples;Min_cycle;Max_cycle;Signal;HPM_P1;HPM_P2
2022/03/31 00:00:32;;;;;;;36.3;41.9;;;;;;;7.1;86;97040;;;;
2022/03/31 00:11:32;;;;;;;28.3;32.2;;;;;;;6.9;85.3;97040;;;;
2022/03/31 00:21:32;;;;;;;28.3;32.2;;;;;;;6.6;85.7;97030;;;;
2022/03/31 00:31:32;;;;;;;28.3;32.2;;;;;;;6.5;85.8;97050;;;;
2022/03/31 00:41:32;;;;;;;21.8;25.2;;;;;;;6.5;85.8;97040;;;;
2022/03/31 00:51:32;;;;;;;21.8;25.2;;;;;;;6.5;85;97040;;;;
2022/03/31 01:01:32;;;;;;;21.8;25.2;;;;;;;6.2;85.1;97040;;;;
2022/03/31 01:12:33;;;;;;;17.3;22;;;;;;;5.9;84.7;97050;;;;
2022/03/31 01:23:32;;;;;;;17.3;22;;;;;;;5.9;84;97060;;;;
2022/03/31 01:34:32;;;;;;;17.3;22;;;;;;;5.5;84.9;97070;;;;
2022/03/31 01:44:32;;;;;;;15.5;19.6;;;;;;;5.1;84.9;97070;;;;
2022/03/31 01:54:32;;;;;;;15.5;19.6;;;;;;;5;85;97060;;;;
2022/03/31 02:05:32;;;;;;;15.5;19.6;;;;;;;5;84.8;97060;;;;
2022/03/31 02:15:32;;;;;;;17.7;20.9;;;;;;;5;84.9;97060;;;;
2022/03/31 02:26:32;;;;;;;17.7;20.9;;;;;;;5;84.5;97060;;;;
2022/03/31 02:37:32;;;;;;;17.7;20.9;;;;;;;4.8;84.5;97060;;;;
2022/03/31 02:48:33;;;;;;;16.9;20.8;;;;;;;4.6;84.8;97050;;;;
2022/03/31 02:59:33;;;;;;;16.9;20.8;;;;;;;4.6;84.7;97060;;;;
2022/03/31 03:10:32;;;;;;;13.5;16.7;;;;;;;4.6;85;97070;;;;
2022/03/31 03:21:32;;;;;;;13.5;16.7;;;;;;;4.6;85;97070;;;;
2022/03/31 03:31:32;;;;;;;13.5;16.7;;;;;;;4.5;84.9;97070;;;;
2022/03/31 03:41:32;;;;;;;10.9;13.6;;;;;;;4.5;84.5;97080;;;;
2022/03/31 03:52:32;;;;;;;10.9;13.6;;;;;;;4.3;84.7;97080;;;;
2022/03/31 04:03:32;;;;;;;10.9;13.6;;;;;;;4.3;85;97070;;;;
2022/03/31 04:14:32;;;;;;;8.6;11.6;;;;;;;4.2;84.9;97090;;;;
2022/03/31 04:24:32;;;;;;;8.6;11.6;;;;;;;4.3;84.9;97100;;;;
2022/03/31 04:34:32;;;;;;;8.6;11.6;;;;;;;4.3;85.1;97090;;;;
2022/03/31 04:45:32;;;;;;;7.7;10;;;;;;;4.3;85.3;97090;;;;
2022/03/31 04:55:32;;;;;;;7.7;10;;;;;;;4.2;85.2;97110;;;;
2022/03/31 05:05:32;;;;;;;7.7;10;;;;;;;4.1;86;97110;;;;
2022/03/31 05:15:32;;;;;;;7.5;11.2;;;;;;;4.1;86.1;97120;;;;
2022/03/31 05:26:32;;;;;;;7.5;11.2;;;;;;;3.9;85.4;97120;;;;
2022/03/31 05:36:32;;;;;;;7.5;11.2;;;;;;;3.8;85.3;97140;;;;
2022/03/31 05:47:32;;;;;;;5.9;9.3;;;;;;;3.9;85.6;97150;;;;
2022/03/31 05:57:32;;;;;;;5.9;9.3;;;;;;;3.9;85.6;97140;;;;
2022/03/31 06:08:32;;;;;;;7.1;10.2;;;;;;;3.9;85.8;97140;;;;
2022/03/31 06:19:32;;;;;;;7.1;10.2;;;;;;;3.8;85.6;97140;;;;
2022/03/31 06:30:32;;;;;;;7.1;10.2;;;;;;;3.8;85.7;97150;;;;
2022/03/31 06:40:37;;;;;;;7;8.7;;;;;;;3.9;85.8;97150;;;;
2022/03/31 06:51:32;;;;;;;7;8.7;;;;;;;4;85.2;97160;;;;
2022/03/31 07:01:32;;;;;;;7;8.7;;;;;;;4;85.2;97170;;;;
2022/03/31 07:11:32;;;;;;;5.6;7.4;;;;;;;4.2;84.8;97170;;;;
2022/03/31 07:22:32;;;;;;;5.6;7.4;;;;;;;4;84.7;97190;;;;
2022/03/31 07:33:32;;;;;;;5.6;7.4;;;;;;;3.8;84.9;97200;;;;
2022/03/31 07:44:32;;;;;;;8.7;12.5;;;;;;;3.9;85;97200;;;;
2022/03/31 07:54:32;;;;;;;8.7;12.5;;;;;;;3.9;85;97200;;;;
2022/03/31 08:05:37;;;;;;;8.7;12.5;;;;;;;4.1;85.3;97210;;;;
2022/03/31 08:15:32;;;;;;;11.1;13.4;;;;;;;4.1;84.9;97230;;;;
2022/03/31 08:25:34;;;;;;;11.1;13.4;;;;;;;4.3;84.4;97230;;;;
2022/03/31 08:35:32;;;;;;;11.1;13.4;;;;;;;4.4;83.5;97230;;;;
2022/03/31 08:46:32;;;;;;;7.8;11;;;;;;;4.5;83.8;97230;;;;
2022/03/31 08:56:33;;;;;;;7.8;11;;;;;;;4.3;84;97220;;;;
2022/03/31 09:06:32;;;;;;;7.8;11;;;;;;;4.3;83.8;97230;;;;
2022/03/31 09:17:32;;;;;;;6.6;8.4;;;;;;;4;84.2;97220;;;;
2022/03/31 09:27:32;;;;;;;6.6;8.4;;;;;;;4.3;84.7;97230;;;;
2022/03/31 09:38:33;;;;;;;9.2;11.8;;;;;;;4.2;84.5;97230;;;;
2022/03/31 09:48:32;;;;;;;9.2;11.8;;;;;;;4.1;84.3;97230;;;;
2022/03/31 09:59:32;;;;;;;9.2;11.8;;;;;;;4.3;84.4;97230;;;;
2022/03/31 10:10:33;;;;;;;10.2;12.5;;;;;;;4.1;84.3;97210;;;;
2022/03/31 10:21:32;;;;;;;10.2;12.5;;;;;;;4;84.6;97200;;;;
2022/03/31 10:32:33;;;;;;;10.2;12.5;;;;;;;4.1;84.6;97190;;;;
2022/03/31 10:42:32;;;;;;;8.6;10.5;;;;;;;4.2;84.4;97190;;;;
2022/03/31 10:52:32;;;;;;;8.6;10.5;;;;;;;4.2;84.9;97190;;;;
2022/03/31 11:03:32;;;;;;;8.6;10.5;;;;;;;4.1;85.1;97200;;;;
2022/03/31 11:14:32;;;;;;;9.4;11.3;;;;;;;4.2;85;97190;;;;
2022/03/31 11:25:32;;;;;;;9.4;11.3;;;;;;;4.1;85.1;97180;;;;
2022/03/31 11:35:32;;;;;;;9.4;11.3;;;;;;;4.2;85.2;97170;;;;
2022/03/31 11:46:32;;;;;;;9.9;13.4;;;;;;;4.3;85.1;97170;;;;
2022/03/31 11:57:34;;;;;;;9.9;13.4;;;;;;;4.2;84.7;97170;;;;
2022/03/31 12:08:32;;;;;;;7.9;9.5;;;;;;;4.3;84.7;97160;;;;
2022/03/31 12:18:34;;;;;;;7.9;9.5;;;;;;;4.4;83.9;97150;;;;
2022/03/31 12:29:32;;;;;;;7.9;9.5;;;;;;;4.1;84.9;97140;;;;
2022/03/31 12:40:32;;;;;;;8.6;10.4;;;;;;;3.8;85.7;97130;;;;
2022/03/31 12:50:33;;;;;;;8.6;10.4;;;;;;;3.9;85.5;97130;;;;
2022/03/31 13:00:33;;;;;;;8.6;10.4;;;;;;;3.9;85.3;97120;;;;
2022/03/31 13:10:33;;;;;;;9.2;11.8;;;;;;;4;85.4;97120;;;;
2022/03/31 13:21:33;;;;;;;9.2;11.8;;;;;;;4.1;85;97120;;;;
2022/03/31 13:31:32;;;;;;;9.2;11.8;;;;;;;4.1;85;97110;;;;
2022/03/31 13:41:32;;;;;;;9.1;11.4;;;;;;;4;85.1;97100;;;;
2022/03/31 13:52:32;;;;;;;9.1;11.4;;;;;;;4;85;97090;;;;
2022/03/31 14:02:32;;;;;;;9.1;11.4;;;;;;;4;85;97090;;;;
2022/03/31 14:13:33;;;;;;;23.7;29.6;;;;;;;4;84.8;97080;;;;
2022/03/31 14:23:32;;;;;;;23.7;29.6;;;;;;;3.9;84.9;97070;;;;
2022/03/31 14:34:32;;;;;;;23.7;29.6;;;;;;;3.8;84.9;97070;;;;
2022/03/31 14:45:33;;;;;;;9.2;13.7;;;;;;;3.9;85;97070;;;;
2022/03/31 14:55:33;;;;;;;9.2;13.7;;;;;;;3.8;84.8;97060;;;;
2022/03/31 15:06:33;;;;;;;9;11.6;;;;;;;3.7;84.7;97050;;;;
2022/03/31 15:16:32;;;;;;;9;11.6;;;;;;;3.6;84.9;97040;;;;
2022/03/31 15:27:32;;;;;;;9;11.6;;;;;;;3.6;85.1;97030;;;;
2022/03/31 15:37:33;;;;;;;7;8.3;;;;;;;3.3;85;97040;;;;
2022/03/31 15:48:32;;;;;;;7;8.3;;;;;;;3.3;84.7;97030;;;;
2022/03/31 15:59:33;;;;;;;7;8.3;;;;;;;3.3;85.4;97020;;;;
2022/03/31 16:09:32;;;;;;;7;9.3;;;;;;;3.1;85.3;97010;;;;
2022/03/31 16:19:33;;;;;;;7;9.3;;;;;;;3.1;85.2;97020;;;;
2022/03/31 16:29:33;;;;;;;7;9.3;;;;;;;3;85;97010;;;;
2022/03/31 16:39:33;;;;;;;7.5;10.3;;;;;;;2.8;85.5;97010;;;;
2022/03/31 16:49:32;;;;;;;7.5;10.3;;;;;;;2.7;85.8;97000;;;;
2022/03/31 17:00:33;;;;;;;7.5;10.3;;;;;;;2.5;85.8;97000;;;;
2022/03/31 17:11:32;;;;;;;10.8;13.3;;;;;;;2.5;85.9;96990;;;;
2022/03/31 17:21:33;;;;;;;10.8;13.3;;;;;;;2.2;86;97000;;;;
2022/03/31 17:31:32;;;;;;;10.8;13.3;;;;;;;2.1;86.1;96990;;;;
2022/03/31 17:41:33;;;;;;;13.2;16.8;;;;;;;1.9;86.3;96990;;;;
2022/03/31 17:52:32;;;;;;;13.2;16.8;;;;;;;1.7;86.6;96990;;;;
2022/03/31 18:02:33;;;;;;;13.2;16.8;;;;;;;1.7;86.6;96990;;;;
2022/03/31 18:12:33;;;;;;;9.5;12.1;;;;;;;1.7;86.9;97000;;;;
2022/03/31 18:22:34;;;;;;;9.5;12.1;;;;;;;1.6;87.1;96990;;;;
2022/03/31 18:43:34;;;;;;;11.3;16;;;;;;;1.4;86.8;97010;;;;
2022/03/31 18:53:33;;;;;;;11.3;16;;;;;;;1.2;86.9;97000;;;;
2022/03/31 19:04:33;;;;;;;11.3;16;;;;;;;1.1;87.3;97000;;;;
2022/03/31 19:14:33;;;;;;;11.3;14.5;;;;;;;1.1;87.2;97000;;;;
2022/03/31 19:25:33;;;;;;;11.3;14.5;;;;;;;1.1;87.4;96990;;;;
2022/03/31 19:36:33;;;;;;;11.4;16.1;;;;;;;1.1;87.6;96990;;;;
2022/03/31 19:46:38;;;;;;;11.4;16.1;;;;;;;1;87.6;96980;;;;
2022/03/31 19:56:33;;;;;;;11.4;16.1;;;;;;;1.1;87.4;96970;;;;
2022/03/31 20:06:33;;;;;;;10.5;12.6;;;;;;;1;87.5;96960;;;;
2022/03/31 20:16:33;;;;;;;10.5;12.6;;;;;;;1.1;87.5;96950;;;;
2022/03/31 20:26:33;;;;;;;10.5;12.6;;;;;;;1.1;87.3;96940;;;;
2022/03/31 20:36:33;;;;;;;9.8;11.9;;;;;;;1;87.3;96930;;;;
2022/03/31 20:47:33;;;;;;;9.8;11.9;;;;;;;1.1;87.4;96920;;;;
2022/03/31 20:57:33;;;;;;;9.8;11.9;;;;;;;0.9;87.5;96920;;;;
2022/03/31 21:08:34;;;;;;;7.3;10;;;;;;;0.9;87.6;96910;;;;
2022/03/31 21:18:33;;;;;;;7.3;10;;;;;;;1;87.6;96910;;;;
2022/03/31 21:28:33;;;;;;;7.3;10;;;;;;;1;87.7;96900;;;;
2022/03/31 21:39:33;;;;;;;7.8;9.8;;;;;;;1;87.5;96890;;;;
2022/03/31 21:50:33;;;;;;;7.8;9.8;;;;;;;1;87.6;96890;;;;
2022/03/31 22:00:33;;;;;;;7.8;9.8;;;;;;;0.9;87.5;96880;;;;
2022/03/31 22:11:34;;;;;;;5.6;7.9;;;;;;;0.9;87.7;96870;;;;
2022/03/31 22:22:33;;;;;;;5.6;7.9;;;;;;;0.9;87.7;96860;;;;
2022/03/31 22:32:33;;;;;;;5.6;7.9;;;;;;;1;87.6;96850;;;;
2022/03/31 22:42:33;;;;;;;6.3;9.7;;;;;;;1;87.4;96840;;;;
2022/03/31 22:53:33;;;;;;;6.3;9.7;;;;;;;1;87.5;96830;;;;
2022/03/31 23:03:33;;;;;;;6.3;9.7;;;;;;;1;87.5;96820;;;;
2022/03/31 23:14:33;;;;;;;5.7;8.8;;;;;;;1;87.4;96810;;;;
2022/03/31 23:24:33;;;;;;;5.7;8.8;;;;;;;1;87.3;96810;;;;
2022/03/31 23:34:33;;;;;;;4.3;6.8;;;;;;;1;87.2;96800;;;;
2022/03/31 23:44:33;;;;;;;4.3;6.8;;;;;;;1;87.4;96800;;;;
2022/03/31 23:55:33;;;;;;;4.3;6.8;;;;;;;1;87.2;96780;;;;
